Time;durP1;ratioP1;P1;durP2;ratioP2;P2;SDS_P1;SDS_P2;PMS_P1;PMS_P2;Temp;Humidity;BMP_temperature;BMP_pressure;BME280_temperature;BME280_humidity;BME280_pressure;Samples;Min_cycle;Max_cycle;Signal;HPM_P1;HPM_P2
2023/05/29 00:01:37;;;;;;;;;;;14.30;95.90;;;;;;5033397;28;19917;-76
2023/05/29 00:04:03;;;;;;;;;;;14.40;94.90;;;;;;5029584;28;19909;-76
2023/05/29 00:06:29;;;;;;;;;;;14.40;95.40;;;;;;5031650;28;20298;-76
2023/05/29 00:08:55;;;;;;;;;;;14.30;96.00;;;;;;5032174;28;19968;-76
2023/05/29 00:11:21;;;;;;;;;;;14.30;95.80;;;;;;5032739;28;20003;-75
2023/05/29 00:13:47;;;;;;;;;;;14.40;94.00;;;;;;5033439;28;20008;-76
2023/05/29 00:16:12;;;;;;;;;;;14.40;94.30;;;;;;5030019;28;19912;-76
2023/05/29 00:18:45;;;;;;;;;;;14.30;95.90;;;;;;5031184;28;19956;-77
2023/05/29 00:21:11;;;;;;;;;;;14.20;96.10;;;;;;5030696;28;20051;-77
2023/05/29 00:23:36;;;;;;;;;;;14.20;96.40;;;;;;5031282;28;19917;-77
2023/05/29 00:26:02;;;;;;;;;;;14.20;96.40;;;;;;5031011;28;19924;-77
2023/05/29 00:28:28;;;;;;;;;;;14.20;94.70;;;;;;5034161;28;19909;-77
2023/05/29 00:30:53;;;;;;;;;;;14.30;93.40;;;;;;5028955;28;20055;-77
2023/05/29 00:33:20;;;;;;;;;;;14.40;93.60;;;;;;5029172;28;20394;-76
2023/05/29 00:35:45;;;;;;;;;;;14.40;93.20;;;;;;5027124;28;19913;-77
2023/05/29 00:38:11;;;;;;;;;;;14.40;94.70;;;;;;5025444;28;20337;-77
2023/05/29 00:40:36;;;;;;;;;;;14.40;92.80;;;;;;5030281;28;19967;-77
2023/05/29 00:43:02;;;;;;;;;;;14.40;92.90;;;;;;5034809;28;19913;-77
2023/05/29 00:45:28;;;;;;;;;;;14.50;92.90;;;;;;5027362;28;19917;-76
2023/05/29 00:47:53;;;;;;;;;;;14.50;92.50;;;;;;5032228;28;20378;-77
2023/05/29 00:50:21;;;;;;;;;;;14.50;92.30;;;;;;5027045;28;19913;-77
2023/05/29 00:52:46;;;;;;;;;;;14.50;92.30;;;;;;5031278;28;19927;-77
2023/05/29 00:55:13;;;;;;;;;;;14.40;92.20;;;;;;5028126;28;20379;-78
2023/05/29 00:57:39;;;;;;;;;;;14.40;92.10;;;;;;5031546;28;19912;-77
2023/05/29 01:00:08;;;;;;;;;;;14.40;92.90;;;;;;5028783;28;19924;-77
2023/05/29 01:02:36;;;;;;;;;;;14.30;93.10;;;;;;5023433;28;19912;-77
2023/05/29 01:05:01;;;;;;;;;;;14.30;93.10;;;;;;5030502;28;19917;-77
2023/05/29 01:07:27;;;;;;;;;;;14.20;93.40;;;;;;5029551;28;20003;-77
2023/05/29 01:09:52;;;;;;;;;;;14.20;93.50;;;;;;5032872;28;19923;-77
2023/05/29 01:12:50;;;;;;;;;;;14.10;93.90;;;;;;5028745;28;19921;-77
2023/05/29 01:15:16;;;;;;;;;;;14.00;95.50;;;;;;5027498;28;19987;-77
2023/05/29 01:17:41;;;;;;;;;;;14.00;95.70;;;;;;5029691;28;19997;-77
2023/05/29 01:20:08;;;;;;;;;;;14.00;94.50;;;;;;5033881;28;20662;-77
2023/05/29 01:23:07;;;;;;;;;;;14.00;94.00;;;;;;5033497;28;19916;-77
2023/05/29 01:25:51;;;;;;;;;;;14.10;94.10;;;;;;5028575;28;19909;-77
2023/05/29 01:28:20;;;;;;;;;;;14.10;94.10;;;;;;5032907;28;19909;-77
2023/05/29 01:30:46;;;;;;;;;;;14.10;94.00;;;;;;5035185;28;19913;-77
2023/05/29 01:33:12;;;;;;;;;;;14.10;94.40;;;;;;5034355;28;19917;-76
2023/05/29 01:35:37;;;;;;;;;;;14.10;93.90;;;;;;5036014;28;19959;-76
2023/05/29 01:38:03;;;;;;;;;;;14.10;94.00;;;;;;5032014;28;19925;-77
2023/05/29 01:40:28;;;;;;;;;;;14.00;94.10;;;;;;5032301;28;19913;-77
2023/05/29 01:42:54;;;;;;;;;;;13.90;95.90;;;;;;5033044;28;20440;-76
2023/05/29 01:45:20;;;;;;;;;;;13.90;94.40;;;;;;5031711;28;19905;-76
2023/05/29 01:47:46;;;;;;;;;;;13.80;96.90;;;;;;5029562;28;19967;-76
2023/05/29 01:50:14;;;;;;;;;;;13.80;95.60;;;;;;5028163;28;19958;-76
2023/05/29 01:52:40;;;;;;;;;;;13.90;94.70;;;;;;5032313;28;19928;-76
2023/05/29 01:55:06;;;;;;;;;;;13.90;94.40;;;;;;5034669;28;20302;-76
2023/05/29 01:57:32;;;;;;;;;;;13.90;94.10;;;;;;5033052;28;19909;-75
2023/05/29 01:59:57;;;;;;;;;;;13.90;94.40;;;;;;5031820;28;19909;-76
2023/05/29 02:02:23;;;;;;;;;;;13.80;95.20;;;;;;5031676;28;19917;-76
2023/05/29 02:04:48;;;;;;;;;;;13.70;94.80;;;;;;5032576;28;19916;-76
2023/05/29 02:07:15;;;;;;;;;;;13.80;94.40;;;;;;5031104;28;19913;-76
2023/05/29 02:09:40;;;;;;;;;;;13.80;94.80;;;;;;5031566;28;19960;-76
2023/05/29 02:12:07;;;;;;;;;;;13.60;96.00;;;;;;5031175;28;20383;-76
2023/05/29 02:14:33;;;;;;;;;;;13.60;95.50;;;;;;5032285;28;19917;-76
2023/05/29 02:16:58;;;;;;;;;;;13.60;95.30;;;;;;5028532;28;20004;-76
2023/05/29 02:19:25;;;;;;;;;;;13.60;94.90;;;;;;5026418;28;19966;-75
2023/05/29 02:21:50;;;;;;;;;;;13.60;94.70;;;;;;5022953;28;19917;-75
2023/05/29 02:24:16;;;;;;;;;;;13.60;95.30;;;;;;5024150;28;19916;-75
2023/05/29 02:26:42;;;;;;;;;;;13.60;95.00;;;;;;5031609;28;19916;-76
2023/05/29 02:29:07;;;;;;;;;;;13.60;95.00;;;;;;5031908;28;19908;-76
2023/05/29 02:31:33;;;;;;;;;;;13.60;95.40;;;;;;5033467;28;20457;-76
2023/05/29 02:33:59;;;;;;;;;;;13.60;95.00;;;;;;5032746;28;19916;-76
2023/05/29 02:36:25;;;;;;;;;;;13.60;94.90;;;;;;5031928;28;19996;-76
2023/05/29 02:38:50;;;;;;;;;;;13.50;95.50;;;;;;5031865;28;19909;-77
2023/05/29 02:41:16;;;;;;;;;;;13.50;95.10;;;;;;5027256;28;20505;-77
2023/05/29 02:43:41;;;;;;;;;;;13.50;95.40;;;;;;5031539;28;19909;-77
2023/05/29 02:46:07;;;;;;;;;;;13.50;95.90;;;;;;5033779;28;19916;-76
2023/05/29 02:48:32;;;;;;;;;;;13.50;95.80;;;;;;5032367;28;19935;-77
2023/05/29 02:50:58;;;;;;;;;;;13.40;97.20;;;;;;5035167;28;19909;-76
2023/05/29 02:53:23;;;;;;;;;;;13.50;96.10;;;;;;5033154;28;19917;-77
2023/05/29 02:55:51;;;;;;;;;;;13.50;95.60;;;;;;5029678;28;19982;-75
2023/05/29 02:58:16;;;;;;;;;;;13.50;95.60;;;;;;5032804;28;19931;-76
2023/05/29 03:00:42;;;;;;;;;;;13.60;95.70;;;;;;5035041;28;20003;-76
2023/05/29 03:03:07;;;;;;;;;;;13.60;95.40;;;;;;5029585;28;19999;-77
2023/05/29 03:05:33;;;;;;;;;;;13.60;95.00;;;;;;5033902;28;19909;-77
2023/05/29 03:07:58;;;;;;;;;;;13.60;95.20;;;;;;5034798;28;19920;-77
2023/05/29 03:10:24;;;;;;;;;;;13.60;95.00;;;;;;5036708;28;19909;-75
2023/05/29 03:12:51;;;;;;;;;;;13.60;95.60;;;;;;5028001;28;19925;-76
2023/05/29 03:15:16;;;;;;;;;;;13.60;97.10;;;;;;5027424;28;19909;-76
2023/05/29 03:17:42;;;;;;;;;;;13.40;98.40;;;;;;5031919;28;19911;-76
2023/05/29 03:20:07;;;;;;;;;;;13.40;98.50;;;;;;5028384;28;19963;-77
2023/05/29 03:22:34;;;;;;;;;;;13.40;98.50;;;;;;5024010;28;19908;-76
2023/05/29 03:25:00;;;;;;;;;;;13.50;98.10;;;;;;5031076;28;19992;-76
2023/05/29 03:27:25;;;;;;;;;;;13.60;97.10;;;;;;5029629;28;20403;-76
2023/05/29 03:29:52;;;;;;;;;;;13.50;98.10;;;;;;5029386;28;20366;-76
2023/05/29 03:32:18;;;;;;;;;;;13.60;97.60;;;;;;5030984;28;19909;-76
2023/05/29 03:34:43;;;;;;;;;;;13.60;97.00;;;;;;5029486;28;19913;-75
2023/05/29 03:37:09;;;;;;;;;;;13.40;98.50;;;;;;5027683;28;19917;-75
2023/05/29 03:39:34;;;;;;;;;;;13.40;98.50;;;;;;5037552;28;19928;-76
2023/05/29 03:42:00;;;;;;;;;;;13.40;98.50;;;;;;5028984;28;20003;-76
2023/05/29 03:44:25;;;;;;;;;;;13.50;97.90;;;;;;5029587;28;19905;-76
2023/05/29 03:46:51;;;;;;;;;;;13.60;97.50;;;;;;5029990;28;19912;-75
2023/05/29 03:49:16;;;;;;;;;;;13.60;98.50;;;;;;5030618;28;20418;-77
2023/05/29 03:51:42;;;;;;;;;;;13.60;98.50;;;;;;5029026;28;19997;-77
2023/05/29 03:54:07;;;;;;;;;;;13.60;98.50;;;;;;5028306;28;20114;-76
2023/05/29 03:56:35;;;;;;;;;;;13.70;98.40;;;;;;5027539;28;19909;-76
2023/05/29 03:59:00;;;;;;;;;;;13.80;98.30;;;;;;5056443;28;19910;-77
2023/05/29 04:01:26;;;;;;;;;;;13.90;98.30;;;;;;5025980;28;20374;-77
2023/05/29 04:03:51;;;;;;;;;;;14.00;97.80;;;;;;5035243;28;19923;-77
2023/05/29 04:06:17;;;;;;;;;;;14.10;97.20;;;;;;5027818;28;19915;-76
2023/05/29 04:08:43;;;;;;;;;;;14.20;97.50;;;;;;5030844;28;19909;-78
2023/05/29 04:11:08;;;;;;;;;;;14.30;96.80;;;;;;5029573;28;20275;-77
2023/05/29 04:13:37;;;;;;;;;;;14.40;96.90;;;;;;5033687;28;20408;-76
2023/05/29 04:16:03;;;;;;;;;;;14.50;96.60;;;;;;5028113;28;20391;-77
2023/05/29 04:18:28;;;;;;;;;;;14.60;96.40;;;;;;5032682;28;19917;-77
2023/05/29 04:20:54;;;;;;;;;;;14.70;96.20;;;;;;5029410;28;20423;-77
2023/05/29 04:23:20;;;;;;;;;;;14.80;96.00;;;;;;5023598;28;19952;-77
2023/05/29 04:25:46;;;;;;;;;;;14.90;95.90;;;;;;5028625;28;19996;-79
2023/05/29 04:28:11;;;;;;;;;;;15.00;95.50;;;;;;5029266;28;19912;-79
2023/05/29 04:30:38;;;;;;;;;;;15.10;95.30;;;;;;5027091;28;19972;-79
2023/05/29 04:33:04;;;;;;;;;;;15.10;95.30;;;;;;5031778;28;19920;-79
2023/05/29 04:35:30;;;;;;;;;;;15.20;95.40;;;;;;5028239;28;19909;-78
2023/05/29 04:37:56;;;;;;;;;;;15.30;95.30;;;;;;5022626;28;19967;-79
2023/05/29 04:40:21;;;;;;;;;;;15.40;95.10;;;;;;5030763;28;19913;-79
2023/05/29 04:42:47;;;;;;;;;;;15.50;95.10;;;;;;5029434;28;20288;-78
2023/05/29 04:45:13;;;;;;;;;;;15.60;94.90;;;;;;5025948;28;19909;-78
2023/05/29 04:47:43;;;;;;;;;;;15.70;94.70;;;;;;5024975;28;20514;-78
2023/05/29 04:50:17;;;;;;;;;;;15.80;94.60;;;;;;5025332;28;19909;-79
2023/05/29 04:52:43;;;;;;;;;;;15.80;94.00;;;;;;5021994;28;20001;-78
2023/05/29 04:55:10;;;;;;;;;;;15.90;93.90;;;;;;5030684;28;19963;-80
2023/05/29 04:57:36;;;;;;;;;;;16.00;93.80;;;;;;5032030;28;20358;-81
2023/05/29 05:00:06;;;;;;;;;;;16.10;93.90;;;;;;5031180;28;19916;-80
2023/05/29 05:02:34;;;;;;;;;;;16.20;93.70;;;;;;5033165;28;20015;-78
2023/05/29 05:05:00;;;;;;;;;;;16.20;93.90;;;;;;5033082;28;19924;-81
2023/05/29 05:07:25;;;;;;;;;;;16.30;93.80;;;;;;5031929;28;19909;-81
2023/05/29 05:09:51;;;;;;;;;;;16.40;93.50;;;;;;5033121;28;19905;-81
2023/05/29 05:12:16;;;;;;;;;;;16.50;93.10;;;;;;5032801;28;19909;-77
2023/05/29 05:14:42;;;;;;;;;;;16.60;93.20;;;;;;5037313;28;19913;-80
2023/05/29 05:17:07;;;;;;;;;;;16.70;93.20;;;;;;5041105;28;19909;-80
2023/05/29 05:19:33;;;;;;;;;;;16.80;92.60;;;;;;5033562;28;20000;-80
2023/05/29 05:21:58;;;;;;;;;;;16.90;92.80;;;;;;5029699;28;20115;-79
2023/05/29 05:24:24;;;;;;;;;;;17.00;92.80;;;;;;5033381;28;20003;-79
2023/05/29 05:26:49;;;;;;;;;;;17.10;92.60;;;;;;5037864;28;19909;-79
2023/05/29 05:29:15;;;;;;;;;;;17.20;92.50;;;;;;5033756;28;19916;-81
2023/05/29 05:31:40;;;;;;;;;;;17.30;92.50;;;;;;5039119;28;20337;-80
2023/05/29 05:34:06;;;;;;;;;;;17.30;91.50;;;;;;5034328;28;20387;-77
2023/05/29 05:36:32;;;;;;;;;;;17.50;91.40;;;;;;5038831;28;19966;-78
2023/05/29 05:38:58;;;;;;;;;;;17.60;91.20;;;;;;5032838;28;19916;-78
2023/05/29 05:41:23;;;;;;;;;;;17.60;90.40;;;;;;5058656;28;20390;-78
2023/05/29 05:43:49;;;;;;;;;;;17.70;89.30;;;;;;5032575;28;19909;-78
2023/05/29 05:46:17;;;;;;;;;;;17.80;89.20;;;;;;5032531;28;19975;-77
2023/05/29 05:48:43;;;;;;;;;;;17.90;89.10;;;;;;5035119;28;19974;-77
2023/05/29 05:51:08;;;;;;;;;;;18.00;89.00;;;;;;5031283;28;19908;-77
2023/05/29 05:53:34;;;;;;;;;;;18.10;88.10;;;;;;5033311;28;19917;-77
2023/05/29 05:56:00;;;;;;;;;;;18.20;88.10;;;;;;5033121;28;19963;-77
2023/05/29 05:58:25;;;;;;;;;;;18.30;87.90;;;;;;5032889;28;19912;-77
2023/05/29 06:00:52;;;;;;;;;;;18.40;87.70;;;;;;5031806;28;20047;-77
2023/05/29 06:03:17;;;;;;;;;;;18.40;86.10;;;;;;5032273;28;19905;-77
2023/05/29 06:05:43;;;;;;;;;;;18.50;86.00;;;;;;5032785;28;19912;-77
2023/05/29 06:08:08;;;;;;;;;;;18.60;86.20;;;;;;5032692;28;19912;-77
2023/05/29 06:10:34;;;;;;;;;;;18.80;85.90;;;;;;5032916;28;19916;-77
2023/05/29 06:15:44;;;;;;;;;;;19.00;85.40;;;;;;5026101;28;20314;-77
2023/05/29 06:18:10;;;;;;;;;;;19.00;84.80;;;;;;5032296;28;19912;-77
2023/05/29 06:20:36;;;;;;;;;;;19.10;84.60;;;;;;5031783;28;20314;-77
2023/05/29 06:23:01;;;;;;;;;;;19.10;84.10;;;;;;5032089;28;20406;-77
2023/05/29 06:25:32;;;;;;;;;;;19.20;84.00;;;;;;5031069;28;20371;-77
2023/05/29 06:27:58;;;;;;;;;;;19.20;83.30;;;;;;5031533;28;20284;-77
2023/05/29 06:30:24;;;;;;;;;;;19.20;83.00;;;;;;5032347;28;19909;-77
2023/05/29 06:32:49;;;;;;;;;;;19.20;83.40;;;;;;5030835;28;19916;-77
2023/05/29 06:35:15;;;;;;;;;;;19.30;83.20;;;;;;5031096;28;19905;-77
2023/05/29 06:37:40;;;;;;;;;;;19.40;83.40;;;;;;5032060;28;20283;-77
2023/05/29 06:40:06;;;;;;;;;;;19.50;83.50;;;;;;5032261;28;19905;-78
2023/05/29 06:42:32;;;;;;;;;;;19.60;83.30;;;;;;5031946;28;19905;-76
2023/05/29 06:44:57;;;;;;;;;;;19.70;81.90;;;;;;5032054;28;19913;-77
2023/05/29 06:47:23;;;;;;;;;;;19.80;81.70;;;;;;5030618;28;19977;-77
2023/05/29 06:49:48;;;;;;;;;;;19.90;81.30;;;;;;5028840;28;19912;-77
2023/05/29 06:52:14;;;;;;;;;;;20.00;81.10;;;;;;5031840;28;19909;-77
2023/05/29 06:54:40;;;;;;;;;;;20.00;80.70;;;;;;5030437;28;19913;-77
2023/05/29 06:57:05;;;;;;;;;;;20.10;80.80;;;;;;5031629;28;19912;-77
2023/05/29 06:59:31;;;;;;;;;;;20.20;81.70;;;;;;5031600;28;19912;-77
2023/05/29 07:01:56;;;;;;;;;;;20.20;79.90;;;;;;5031633;28;19912;-76
2023/05/29 07:04:22;;;;;;;;;;;20.30;80.20;;;;;;5031642;28;19913;-78
2023/05/29 07:06:47;;;;;;;;;;;20.30;80.10;;;;;;5031361;28;19915;-77
2023/05/29 07:09:13;;;;;;;;;;;20.40;79.80;;;;;;5031537;28;19912;-78
2023/05/29 07:11:39;;;;;;;;;;;20.50;79.50;;;;;;5029074;28;19905;-78
2023/05/29 07:14:04;;;;;;;;;;;20.60;78.60;;;;;;5030194;28;19916;-78
2023/05/29 07:16:30;;;;;;;;;;;20.50;79.00;;;;;;5028165;28;19912;-78
2023/05/29 07:18:55;;;;;;;;;;;20.60;79.10;;;;;;5031607;28;19909;-78
2023/05/29 07:21:21;;;;;;;;;;;20.50;78.90;;;;;;5031201;28;19952;-77
2023/05/29 07:23:46;;;;;;;;;;;20.50;79.00;;;;;;5031354;28;20539;-77
2023/05/29 07:26:12;;;;;;;;;;;20.60;80.30;;;;;;5031115;28;19964;-77
2023/05/29 07:28:38;;;;;;;;;;;20.50;79.30;;;;;;5031193;28;19983;-77
2023/05/29 07:31:03;;;;;;;;;;;20.60;79.70;;;;;;5031061;28;19909;-76
2023/05/29 07:33:29;;;;;;;;;;;20.50;79.80;;;;;;5029754;28;19967;-76
2023/05/29 07:35:54;;;;;;;;;;;20.60;79.60;;;;;;5029738;28;19999;-77
2023/05/29 07:38:21;;;;;;;;;;;20.60;79.30;;;;;;5030851;28;19913;-77
2023/05/29 07:40:46;;;;;;;;;;;20.70;79.10;;;;;;5030774;28;19995;-77
2023/05/29 07:43:12;;;;;;;;;;;20.90;78.80;;;;;;5029445;28;20498;-78
2023/05/29 07:45:37;;;;;;;;;;;21.00;78.40;;;;;;5030836;28;19970;-77
2023/05/29 07:48:03;;;;;;;;;;;21.20;78.30;;;;;;5029689;28;20006;-78
2023/05/29 07:50:28;;;;;;;;;;;21.30;78.10;;;;;;5030692;28;19913;-78
2023/05/29 07:52:56;;;;;;;;;;;21.40;78.70;;;;;;5030671;28;19917;-78
2023/05/29 07:55:21;;;;;;;;;;;21.40;78.00;;;;;;5029117;28;19913;-78
2023/05/29 07:57:48;;;;;;;;;;;21.50;77.60;;;;;;5030636;28;19995;-78
2023/05/29 08:00:14;;;;;;;;;;;21.50;77.00;;;;;;5028925;28;19911;-78
2023/05/29 08:02:40;;;;;;;;;;;21.50;77.50;;;;;;5030672;28;19913;-76
2023/05/29 08:05:07;;;;;;;;;;;21.40;76.60;;;;;;5030463;28;19912;-76
2023/05/29 08:07:33;;;;;;;;;;;21.40;77.10;;;;;;5030357;28;19905;-75
2023/05/29 08:09:59;;;;;;;;;;;21.40;77.10;;;;;;5028814;28;19967;-76
2023/05/29 08:12:25;;;;;;;;;;;21.40;77.10;;;;;;5030235;28;20398;-76
2023/05/29 08:14:50;;;;;;;;;;;21.50;77.10;;;;;;5030289;28;19995;-76
2023/05/29 08:17:16;;;;;;;;;;;21.50;77.40;;;;;;5029076;28;19927;-76
2023/05/29 08:19:41;;;;;;;;;;;21.50;77.10;;;;;;5030049;28;19912;-76
2023/05/29 08:22:07;;;;;;;;;;;21.50;77.10;;;;;;5030330;28;19912;-76
2023/05/29 08:24:32;;;;;;;;;;;21.40;76.90;;;;;;5030081;28;20386;-78
2023/05/29 08:26:58;;;;;;;;;;;21.40;76.40;;;;;;5030192;28;19905;-76
2023/05/29 08:29:23;;;;;;;;;;;21.40;76.50;;;;;;5030124;28;19920;-76
2023/05/29 08:31:49;;;;;;;;;;;21.50;76.90;;;;;;5028911;28;19970;-76
2023/05/29 08:34:15;;;;;;;;;;;21.60;75.50;;;;;;5024431;28;20007;-76
2023/05/29 08:36:41;;;;;;;;;;;21.60;75.70;;;;;;5030088;28;19927;-76
2023/05/29 08:39:06;;;;;;;;;;;21.60;75.70;;;;;;5030035;28;19912;-76
2023/05/29 08:41:44;;;;;;;;;;;21.70;75.80;;;;;;5028749;28;19979;-77
2023/05/29 08:44:12;;;;;;;;;;;21.70;75.30;;;;;;5028892;28;20477;-76
2023/05/29 08:46:38;;;;;;;;;;;21.80;75.90;;;;;;5029920;28;19970;-76
2023/05/29 08:49:04;;;;;;;;;;;21.70;76.00;;;;;;5030032;28;19916;-78
2023/05/29 08:51:32;;;;;;;;;;;21.70;75.30;;;;;;5028779;28;20359;-76
2023/05/29 08:53:57;;;;;;;;;;;21.80;76.30;;;;;;5029990;28;19913;-76
2023/05/29 08:56:23;;;;;;;;;;;21.80;75.30;;;;;;5029777;28;19909;-77
2023/05/29 08:58:50;;;;;;;;;;;21.90;75.10;;;;;;5029509;28;19971;-77
2023/05/29 09:01:16;;;;;;;;;;;22.00;74.80;;;;;;5024517;28;19909;-76
2023/05/29 09:03:42;;;;;;;;;;;22.20;73.30;;;;;;5029820;28;19956;-76
2023/05/29 09:06:08;;;;;;;;;;;22.40;73.40;;;;;;5029907;28;19940;-77
2023/05/29 09:08:34;;;;;;;;;;;22.60;73.60;;;;;;5029699;28;19905;-76
2023/05/29 09:11:00;;;;;;;;;;;22.70;72.90;;;;;;5029946;28;19905;-76
2023/05/29 09:13:28;;;;;;;;;;;22.80;71.70;;;;;;5029608;28;19917;-77
2023/05/29 09:16:00;;;;;;;;;;;22.90;70.50;;;;;;5023526;28;20442;-76
2023/05/29 09:18:29;;;;;;;;;;;23.10;71.90;;;;;;5029846;28;19905;-76
2023/05/29 09:20:55;;;;;;;;;;;23.20;70.60;;;;;;5028379;28;20300;-76
2023/05/29 09:23:20;;;;;;;;;;;23.40;70.30;;;;;;5028458;28;19905;-76
2023/05/29 09:25:51;;;;;;;;;;;23.50;69.50;;;;;;5029461;28;20027;-76
2023/05/29 09:28:18;;;;;;;;;;;23.70;69.90;;;;;;5029750;28;19964;-76
2023/05/29 09:30:44;;;;;;;;;;;23.70;68.20;;;;;;5029314;28;19912;-76
2023/05/29 09:33:11;;;;;;;;;;;23.70;68.50;;;;;;5029596;28;19913;-76
2023/05/29 09:35:36;;;;;;;;;;;23.80;67.80;;;;;;5029482;28;19991;-76
2023/05/29 09:38:02;;;;;;;;;;;23.90;68.00;;;;;;5029509;28;20004;-76
2023/05/29 09:40:32;;;;;;;;;;;23.90;67.90;;;;;;5032708;28;20398;-76
2023/05/29 09:43:04;;;;;;;;;;;23.90;68.30;;;;;;5029113;28;19905;-76
2023/05/29 09:45:30;;;;;;;;;;;23.90;68.70;;;;;;5033198;28;19912;-76
2023/05/29 09:47:56;;;;;;;;;;;23.90;69.20;;;;;;5033196;28;19909;-75
2023/05/29 09:50:25;;;;;;;;;;;23.80;68.90;;;;;;5031589;28;20401;-76
2023/05/29 09:52:52;;;;;;;;;;;23.80;68.10;;;;;;5031714;28;19962;-76
2023/05/29 09:55:21;;;;;;;;;;;23.80;69.00;;;;;;5033025;28;19913;-76
2023/05/29 09:57:48;;;;;;;;;;;23.90;69.90;;;;;;5032888;28;19913;-76
2023/05/29 10:00:14;;;;;;;;;;;24.00;69.60;;;;;;5032720;28;19912;-76
2023/05/29 10:02:40;;;;;;;;;;;24.20;68.90;;;;;;5032913;28;19905;-76
2023/05/29 10:05:07;;;;;;;;;;;24.40;66.50;;;;;;5032794;28;20006;-76
2023/05/29 10:07:35;;;;;;;;;;;24.60;67.00;;;;;;5032867;28;20001;-76
2023/05/29 10:10:05;;;;;;;;;;;24.80;67.10;;;;;;5032739;28;20030;-76
2023/05/29 10:12:32;;;;;;;;;;;25.00;68.30;;;;;;5032415;28;19955;-76
2023/05/29 10:14:59;;;;;;;;;;;25.20;65.60;;;;;;5032513;28;19921;-76
2023/05/29 10:17:27;;;;;;;;;;;25.50;64.70;;;;;;5029380;28;20005;-76
2023/05/29 10:19:54;;;;;;;;;;;25.90;64.40;;;;;;5032649;28;20299;-76
2023/05/29 10:22:22;;;;;;;;;;;26.30;63.80;;;;;;5032635;28;20452;-75
2023/05/29 10:24:49;;;;;;;;;;;26.80;62.80;;;;;;5031925;28;19912;-76
2023/05/29 10:27:15;;;;;;;;;;;27.20;62.00;;;;;;5029024;28;19913;-75
2023/05/29 10:29:50;;;;;;;;;;;27.40;60.40;;;;;;5030477;28;19916;-75
2023/05/29 10:32:15;;;;;;;;;;;27.60;60.30;;;;;;5032239;28;19984;-76
2023/05/29 10:34:53;;;;;;;;;;;27.60;61.40;;;;;;5032251;28;20016;-75
2023/05/29 10:37:25;;;;;;;;;;;27.60;60.80;;;;;;5032169;28;19992;-76
2023/05/29 10:39:51;;;;;;;;;;;27.60;61.30;;;;;;5032262;28;19912;-76
2023/05/29 10:42:35;;;;;;;;;;;27.90;60.50;;;;;;5032245;28;19909;-76
2023/05/29 10:45:00;;;;;;;;;;;28.30;58.80;;;;;;5031321;28;19995;-76
2023/05/29 10:47:26;;;;;;;;;;;28.90;57.50;;;;;;5030664;28;20054;-76
2023/05/29 10:49:52;;;;;;;;;;;29.40;57.00;;;;;;5036321;28;20417;-76
2023/05/29 10:52:18;;;;;;;;;;;29.50;57.00;;;;;;5032298;28;19915;-76
2023/05/29 10:54:52;;;;;;;;;;;29.40;57.30;;;;;;5032652;28;19935;-76
2023/05/29 10:57:18;;;;;;;;;;;29.10;58.20;;;;;;5031903;28;19963;-76
2023/05/29 10:59:44;;;;;;;;;;;28.70;58.20;;;;;;5030597;28;19909;-77
2023/05/29 11:02:10;;;;;;;;;;;28.40;57.80;;;;;;5031475;28;19915;-76
2023/05/29 11:04:36;;;;;;;;;;;28.00;59.20;;;;;;5039585;28;20278;-77
2023/05/29 11:07:06;;;;;;;;;;;27.50;60.20;;;;;;5038636;28;19909;-77
2023/05/29 11:09:35;;;;;;;;;;;27.10;60.70;;;;;;5030040;28;19941;-77
2023/05/29 11:12:32;;;;;;;;;;;26.80;60.40;;;;;;5029005;28;19917;-77
2023/05/29 11:15:13;;;;;;;;;;;26.70;60.90;;;;;;5037587;28;20235;-77
2023/05/29 11:17:38;;;;;;;;;;;26.30;62.00;;;;;;5035775;28;19915;-77
2023/05/29 11:20:06;;;;;;;;;;;26.10;64.00;;;;;;5025907;28;19995;-77
2023/05/29 11:22:41;;;;;;;;;;;26.20;63.60;;;;;;5035088;28;19913;-76
2023/05/29 11:25:07;;;;;;;;;;;26.30;63.30;;;;;;5026495;28;20291;-76
2023/05/29 11:27:33;;;;;;;;;;;26.50;63.50;;;;;;5028477;28;19911;-75
2023/05/29 11:29:59;;;;;;;;;;;26.80;62.00;;;;;;5029914;28;19932;-76
2023/05/29 11:32:27;;;;;;;;;;;27.00;60.80;;;;;;5029271;28;19959;-77
2023/05/29 11:34:55;;;;;;;;;;;27.00;61.30;;;;;;5029885;28;19913;-77
2023/05/29 11:37:22;;;;;;;;;;;26.60;62.00;;;;;;5028939;28;19917;-77
2023/05/29 11:39:47;;;;;;;;;;;26.60;61.30;;;;;;5029341;28;20341;-75
2023/05/29 11:42:13;;;;;;;;;;;26.20;61.30;;;;;;5027750;28;19905;-75
2023/05/29 11:44:39;;;;;;;;;;;26.00;62.90;;;;;;5028084;28;19915;-75
2023/05/29 11:47:05;;;;;;;;;;;26.10;63.30;;;;;;5025930;28;19963;-75
2023/05/29 11:49:32;;;;;;;;;;;26.40;63.70;;;;;;5028000;28;20370;-75
2023/05/29 11:52:11;;;;;;;;;;;26.80;62.60;;;;;;5028124;28;19955;-77
2023/05/29 11:54:37;;;;;;;;;;;27.20;62.30;;;;;;5028120;28;19917;-75
2023/05/29 11:57:05;;;;;;;;;;;27.60;60.30;;;;;;5031223;28;19916;-76
2023/05/29 11:59:34;;;;;;;;;;;27.80;60.60;;;;;;5022881;28;20511;-76
2023/05/29 12:02:03;;;;;;;;;;;27.80;60.50;;;;;;5028173;28;19909;-76
2023/05/29 12:04:28;;;;;;;;;;;27.50;60.30;;;;;;5031234;28;19913;-76
2023/05/29 12:06:54;;;;;;;;;;;27.20;61.90;;;;;;5028882;28;19963;-76
2023/05/29 12:09:24;;;;;;;;;;;26.80;62.50;;;;;;5026987;28;20410;-75
2023/05/29 12:11:50;;;;;;;;;;;26.40;63.60;;;;;;5031051;28;19932;-76
2023/05/29 12:14:16;;;;;;;;;;;25.90;64.70;;;;;;5028304;28;20360;-76
2023/05/29 12:16:41;;;;;;;;;;;25.20;66.30;;;;;;5037979;28;19909;-76
2023/05/29 12:19:07;;;;;;;;;;;24.60;67.90;;;;;;5039272;28;19909;-76
2023/05/29 12:21:33;;;;;;;;;;;24.20;69.30;;;;;;5032885;28;20286;-76
2023/05/29 12:23:58;;;;;;;;;;;23.70;71.50;;;;;;5029151;28;19909;-77
2023/05/29 12:26:25;;;;;;;;;;;23.50;73.40;;;;;;5022143;28;19912;-76
2023/05/29 12:28:52;;;;;;;;;;;23.30;75.10;;;;;;5032390;28;19905;-76
2023/05/29 12:31:28;;;;;;;;;;;23.10;75.90;;;;;;5030980;28;20349;-76
2023/05/29 12:33:53;;;;;;;;;;;22.90;74.40;;;;;;5026565;28;20311;-76
2023/05/29 12:36:19;;;;;;;;;;;22.80;76.90;;;;;;5031947;28;19912;-77
2023/05/29 12:38:48;;;;;;;;;;;22.70;77.70;;;;;;5033015;28;19917;-77
2023/05/29 12:41:32;;;;;;;;;;;22.50;79.80;;;;;;5037054;28;20267;-76
2023/05/29 12:43:58;;;;;;;;;;;22.40;78.20;;;;;;5028369;28;19955;-76
2023/05/29 12:46:24;;;;;;;;;;;22.10;79.90;;;;;;5030106;28;19952;-76
2023/05/29 12:48:52;;;;;;;;;;;21.70;79.50;;;;;;5029471;28;19944;-76
2023/05/29 12:51:22;;;;;;;;;;;21.20;78.20;;;;;;5029996;28;19905;-76
2023/05/29 12:53:47;;;;;;;;;;;20.90;79.60;;;;;;5029755;28;19994;-76
2023/05/29 12:56:12;;;;;;;;;;;20.30;80.80;;;;;;5030251;28;19905;-76
2023/05/29 12:58:38;;;;;;;;;;;19.90;83.30;;;;;;5029779;28;19971;-76
2023/05/29 13:01:04;;;;;;;;;;;19.70;84.50;;;;;;5029790;28;19909;-76
2023/05/29 13:03:29;;;;;;;;;;;19.60;82.90;;;;;;5029733;28;20055;-76
2023/05/29 13:05:55;;;;;;;;;;;19.40;83.80;;;;;;5030131;28;20420;-76
2023/05/29 13:08:21;;;;;;;;;;;19.50;85.50;;;;;;5029711;28;20279;-76
2023/05/29 13:10:46;;;;;;;;;;;19.70;85.00;;;;;;5029969;28;20367;-75
2023/05/29 13:13:12;;;;;;;;;;;20.00;86.30;;;;;;5029868;28;19952;-76
2023/05/29 13:15:37;;;;;;;;;;;20.80;87.70;;;;;;5033668;28;19991;-76
2023/05/29 13:18:03;;;;;;;;;;;21.70;83.60;;;;;;5033735;28;19905;-76
2023/05/29 13:20:30;;;;;;;;;;;22.50;78.90;;;;;;5033794;28;20511;-76
2023/05/29 13:22:55;;;;;;;;;;;23.00;78.80;;;;;;5033823;28;20008;-76
2023/05/29 13:25:21;;;;;;;;;;;23.50;79.10;;;;;;5033763;28;20349;-76
2023/05/29 13:27:48;;;;;;;;;;;24.00;74.50;;;;;;5033505;28;19905;-76
2023/05/29 13:30:14;;;;;;;;;;;24.60;72.10;;;;;;5033482;28;19905;-76
2023/05/29 13:32:40;;;;;;;;;;;25.40;71.50;;;;;;5033289;28;19908;-76
2023/05/29 13:35:05;;;;;;;;;;;25.90;68.60;;;;;;5033412;28;20038;-76
2023/05/29 13:37:31;;;;;;;;;;;26.00;70.10;;;;;;5032057;28;19999;-76
2023/05/29 13:39:57;;;;;;;;;;;26.00;70.70;;;;;;5033373;28;19905;-76
2023/05/29 13:42:22;;;;;;;;;;;25.70;73.70;;;;;;5033131;28;19975;-75
2023/05/29 13:44:48;;;;;;;;;;;25.50;72.50;;;;;;5033109;28;19912;-76
2023/05/29 13:47:14;;;;;;;;;;;25.30;71.30;;;;;;5032963;28;19913;-76
2023/05/29 13:49:40;;;;;;;;;;;25.00;73.20;;;;;;5033023;28;19912;-76
2023/05/29 13:52:05;;;;;;;;;;;24.80;72.50;;;;;;5032148;28;20294;-76
2023/05/29 13:54:35;;;;;;;;;;;24.60;71.90;;;;;;5031417;28;19913;-76
2023/05/29 13:57:04;;;;;;;;;;;24.50;71.30;;;;;;5033035;28;20299;-76
2023/05/29 13:59:33;;;;;;;;;;;24.90;72.10;;;;;;5032997;28;20039;-76
2023/05/29 14:01:58;;;;;;;;;;;25.50;72.90;;;;;;5030309;28;19947;-76
2023/05/29 14:04:24;;;;;;;;;;;26.50;70.40;;;;;;5030426;28;19948;-76
2023/05/29 14:06:50;;;;;;;;;;;27.20;68.20;;;;;;5032886;28;19909;-76
2023/05/29 14:09:16;;;;;;;;;;;27.80;66.20;;;;;;5032970;28;20291;-75
2023/05/29 14:11:42;;;;;;;;;;;28.00;66.50;;;;;;5032429;28;19905;-75
2023/05/29 14:14:07;;;;;;;;;;;27.70;66.20;;;;;;5032490;28;19920;-75
2023/05/29 14:16:33;;;;;;;;;;;27.30;64.90;;;;;;5037348;28;19909;-75